createdAt,value
2018-12-20T00:02:51.248Z,1001.78
2018-12-20T00:03:49.738Z,1001.77
2018-12-20T00:06:29.841Z,1001.74
2018-12-20T00:07:28.712Z,1001.77
2018-12-20T00:08:27.229Z,1001.79
2018-12-20T00:09:25.858Z,1001.75
2018-12-20T00:10:24.310Z,1001.78
2018-12-20T00:11:22.897Z,1001.74
2018-12-20T00:12:21.370Z,1001.81
2018-12-20T00:13:20.033Z,1001.81
2018-12-20T00:14:18.805Z,1001.78
2018-12-20T00:34:42.945Z,1001.78
2018-12-20T00:35:41.660Z,1001.75
2018-12-20T00:36:40.227Z,1001.79
2018-12-20T00:37:38.963Z,1001.78
2018-12-20T00:38:37.347Z,1001.79
2018-12-20T00:39:35.859Z,1001.81
2018-12-20T00:40:34.422Z,1001.78
2018-12-20T00:41:34.999Z,1001.75
2018-12-20T00:42:33.582Z,1001.83
2018-12-20T00:43:32.092Z,1001.76
2018-12-20T00:44:37.214Z,1001.81
2018-12-20T00:45:29.669Z,1001.79
2018-12-20T00:46:28.371Z,1001.81
2018-12-20T00:47:27.119Z,1001.79
2018-12-20T00:48:25.558Z,1001.81
2018-12-20T00:51:23.774Z,1001.81
2018-12-20T00:52:22.368Z,1001.82
2018-12-20T00:53:20.951Z,1001.83
2018-12-20T00:55:28.722Z,1001.88
2018-12-20T00:56:27.267Z,1001.82
2018-12-20T00:57:25.822Z,1001.83
2018-12-20T00:58:24.370Z,1001.9
2018-12-20T00:59:23.033Z,1001.88
2018-12-20T01:00:21.474Z,1001.87
2018-12-20T01:01:19.983Z,1001.89
2018-12-20T01:02:18.673Z,1001.9
2018-12-20T01:03:17.282Z,1001.96
2018-12-20T01:04:15.843Z,1001.94
2018-12-20T01:05:14.426Z,1001.99
2018-12-20T01:06:13.277Z,1001.95
2018-12-20T01:07:11.865Z,1001.95
2018-12-20T01:08:10.462Z,1001.96
2018-12-20T01:09:08.990Z,1001.91
2018-12-20T01:10:07.501Z,1001.91
2018-12-20T01:12:48.112Z,1002.03
2018-12-20T01:13:46.540Z,1002.05
2018-12-20T01:14:45.822Z,1002.05
2018-12-20T01:15:43.758Z,1002.07
2018-12-20T01:16:42.406Z,1002.1
2018-12-20T01:19:22.663Z,1002.17
2018-12-20T01:20:21.441Z,1002.17
2018-12-20T01:21:19.919Z,1002.19
2018-12-20T01:22:18.559Z,1002.19
2018-12-20T01:41:04.074Z,1002.14
2018-12-20T01:42:02.970Z,1002.2
2018-12-20T01:43:01.558Z,1002.26
2018-12-20T01:44:00.141Z,1002.23
2018-12-20T01:44:58.661Z,1002.26
2018-12-20T01:45:57.409Z,1002.32
2018-12-20T01:46:55.850Z,1002.31
2018-12-20T01:47:54.564Z,1002.28
2018-12-20T01:48:53.159Z,1002.3
2018-12-20T01:49:51.766Z,1002.27
2018-12-20T01:50:50.349Z,1002.29
2018-12-20T01:51:49.203Z,1002.29
2018-12-20T01:52:47.707Z,1002.33
2018-12-20T01:53:46.328Z,1002.31
2018-12-20T01:54:44.809Z,1002.31
2018-12-20T01:55:43.449Z,1002.33
2018-12-20T01:56:41.927Z,1002.36
2018-12-20T01:57:40.629Z,1002.31
2018-12-20T01:58:39.407Z,1002.32
2018-12-20T01:59:38.173Z,1002.33
2018-12-20T02:00:36.759Z,1002.3
2018-12-20T02:01:35.427Z,1002.39
2018-12-20T02:02:33.827Z,1002.37
2018-12-20T02:03:32.379Z,1002.35
2018-12-20T02:04:31.053Z,1002.42
2018-12-20T02:05:29.386Z,1002.35
2018-12-20T02:06:27.917Z,1002.3
2018-12-20T02:07:26.550Z,1002.36
2018-12-20T02:08:25.236Z,1002.35
2018-12-20T02:09:23.554Z,1002.39
2018-12-20T02:10:22.327Z,1002.42
2018-12-20T02:11:21.077Z,1002.44
2018-12-20T02:12:19.602Z,1002.41
2018-12-20T02:13:18.145Z,1002.39
2018-12-20T02:14:17.027Z,1002.38
2018-12-20T02:15:15.537Z,1002.38
2018-12-20T02:17:55.667Z,1002.39
2018-12-20T02:18:54.213Z,1002.37
2018-12-20T02:19:53.145Z,1002.38
2018-12-20T02:20:51.732Z,1002.33
2018-12-20T02:21:50.166Z,1002.35
2018-12-20T02:22:49.025Z,1002.36
2018-12-20T02:23:47.749Z,1002.24
2018-12-20T02:24:46.241Z,1002.22
2018-12-20T02:25:44.647Z,1002.2
2018-12-20T02:28:19.559Z,1002.26
2018-12-20T02:29:18.211Z,1002.21
2018-12-20T02:30:16.987Z,1002.22
2018-12-20T02:31:15.444Z,1002.21
2018-12-20T02:32:13.772Z,1002.2
2018-12-20T02:33:12.446Z,1002.17
2018-12-20T02:34:11.420Z,1002.15
2018-12-20T02:35:09.964Z,1002.24
2018-12-20T02:36:08.837Z,1002.21
2018-12-20T02:37:07.314Z,1002.16
2018-12-20T02:38:06.041Z,1002.19
2018-12-20T02:39:04.488Z,1002.23
2018-12-20T02:40:02.919Z,1002.18
2018-12-20T02:41:01.597Z,1002.2
2018-12-20T02:42:00.156Z,1002.18
2018-12-20T02:42:58.495Z,1002.17
2018-12-20T02:43:57.324Z,1002.22
2018-12-20T02:44:55.652Z,1002.16
2018-12-20T02:45:54.480Z,1002.21
2018-12-20T02:46:52.676Z,1002.2
2018-12-20T02:47:51.563Z,1002.16
2018-12-20T02:48:49.998Z,1002.2
2018-12-20T02:49:49.179Z,1002.23
2018-12-20T02:50:47.583Z,1002.22
2018-12-20T02:51:46.321Z,1002.14
2018-12-20T02:52:44.692Z,1002.18
2018-12-20T02:53:43.176Z,1002.14
2018-12-20T02:54:41.720Z,1002.15
2018-12-20T02:55:40.252Z,1002.19
2018-12-20T02:56:38.785Z,1002.2
2018-12-20T02:57:37.393Z,1002.15
2018-12-20T02:58:35.827Z,1002.21
2018-12-20T02:59:34.428Z,1002.18
2018-12-20T03:00:33.481Z,1002.2
2018-12-20T03:01:31.877Z,1002.14
2018-12-20T03:02:30.276Z,1002.13
2018-12-20T03:03:29.137Z,1002.14
2018-12-20T03:04:27.639Z,1002.15
2018-12-20T03:05:26.214Z,1002.11
2018-12-20T03:06:24.904Z,1002.11
2018-12-20T03:07:23.407Z,1002.08
2018-12-20T03:08:22.226Z,1002.06
2018-12-20T03:09:21.070Z,1002.1
2018-12-20T03:10:19.520Z,1002.09
2018-12-20T03:11:17.979Z,1002.01
2018-12-20T03:12:16.521Z,1002.05
2018-12-20T03:13:15.341Z,1002.06
2018-12-20T03:14:13.954Z,1002.08
2018-12-20T03:15:19.793Z,1002.05
2018-12-20T03:16:11.036Z,1001.99
2018-12-20T03:17:09.687Z,1001.95
2018-12-20T03:18:08.500Z,1001.98
2018-12-20T03:19:07.116Z,1001.98
2018-12-20T03:20:05.707Z,1001.99
2018-12-20T03:21:04.189Z,1002.01
2018-12-20T03:22:03.044Z,1001.96
2018-12-20T03:23:01.653Z,1002.01
2018-12-20T03:24:00.218Z,1002.02
2018-12-20T03:24:58.697Z,1002
2018-12-20T03:25:57.338Z,1002.04
2018-12-20T03:26:55.999Z,1002.04
2018-12-20T03:27:54.413Z,1002.09
2018-12-20T03:28:53.147Z,1002.12
2018-12-20T03:29:51.878Z,1002.09
2018-12-20T03:30:50.487Z,1002.07
2018-12-20T03:31:49.597Z,1002.06
2018-12-20T03:32:47.745Z,1002
2018-12-20T03:33:46.567Z,1002
2018-12-20T03:34:45.053Z,1001.95
2018-12-20T03:35:43.692Z,1002.01
2018-12-20T03:36:42.091Z,1002
2018-12-20T03:37:40.814Z,1001.98
2018-12-20T03:40:21.176Z,1001.99
2018-12-20T03:41:20.078Z,1001.97
2018-12-20T03:42:18.355Z,1001.93
2018-12-20T03:43:16.829Z,1001.93
2018-12-20T03:46:15.160Z,1001.96
2018-12-20T03:47:13.685Z,1001.93
2018-12-20T03:48:12.362Z,1001.96
2018-12-20T03:49:10.943Z,1002.02
2018-12-20T03:50:09.432Z,1002.03
2018-12-20T03:51:07.955Z,1002.04
2018-12-20T03:52:06.527Z,1002.01
2018-12-20T03:53:04.996Z,1002
2018-12-20T03:54:03.506Z,1002.01
2018-12-20T03:55:02.280Z,1001.98
2018-12-20T03:56:00.753Z,1002.01
2018-12-20T03:56:59.193Z,1002.02
2018-12-20T03:57:57.602Z,1001.99
2018-12-20T03:58:56.159Z,1002
2018-12-20T03:59:55.000Z,1001.99
2018-12-20T04:00:53.845Z,1001.96
2018-12-20T04:01:52.189Z,1001.93
2018-12-20T04:02:51.079Z,1001.96
2018-12-20T04:03:49.546Z,1001.94
2018-12-20T04:04:48.154Z,1001.96
2018-12-20T04:05:46.786Z,1001.95
2018-12-20T04:06:45.335Z,1001.95
2018-12-20T04:07:44.090Z,1001.94
2018-12-20T04:08:42.413Z,1001.89
2018-12-20T04:09:41.311Z,1001.9
2018-12-20T04:10:39.820Z,1001.93
2018-12-20T04:11:38.774Z,1001.95
2018-12-20T04:12:37.410Z,1001.95
2018-12-20T04:13:35.906Z,1002
2018-12-20T04:14:34.444Z,1002.07
2018-12-20T04:15:37.700Z,1002.09
2018-12-20T04:16:31.612Z,1002.16
2018-12-20T04:17:30.218Z,1002.13
2018-12-20T04:18:28.562Z,1002.11
2018-12-20T04:19:27.473Z,1002.14
2018-12-20T04:20:25.920Z,1002.12
2018-12-20T04:21:24.734Z,1002.15
2018-12-20T04:22:23.235Z,1002.21
2018-12-20T04:23:21.731Z,1002.19
2018-12-20T04:24:20.734Z,1002.21
2018-12-20T04:25:18.951Z,1002.21
2018-12-20T04:26:17.536Z,1002.19
2018-12-20T04:27:16.065Z,1002.2
2018-12-20T04:28:14.818Z,1002.17
2018-12-20T04:29:13.259Z,1002.11
2018-12-20T04:30:11.931Z,1002.21
2018-12-20T04:31:10.396Z,1002.22
2018-12-20T04:32:09.272Z,1002.21
2018-12-20T04:33:07.588Z,1002.18
2018-12-20T04:34:06.147Z,1002.23
2018-12-20T04:35:05.110Z,1002.25
2018-12-20T04:36:03.683Z,1002.23
2018-12-20T04:37:02.280Z,1002.25
2018-12-20T04:38:00.827Z,1002.23
2018-12-20T04:38:59.604Z,1002.23
2018-12-20T04:39:57.956Z,1002.26
2018-12-20T04:40:56.647Z,1002.24
2018-12-20T04:41:55.255Z,1002.26
2018-12-20T04:42:54.017Z,1002.21
2018-12-20T04:43:52.929Z,1002.27
2018-12-20T04:44:51.270Z,1002.28
2018-12-20T04:45:49.869Z,1002.29
2018-12-20T04:46:50.778Z,1002.29
2018-12-20T04:47:49.423Z,1002.32
2018-12-20T04:48:47.903Z,1002.33
2018-12-20T04:49:46.984Z,1002.4
2018-12-20T04:50:45.534Z,1002.42
2018-12-20T04:51:43.871Z,1002.46
2018-12-20T04:52:42.406Z,1002.49
2018-12-20T04:53:41.291Z,1002.52
2018-12-20T04:54:39.532Z,1002.53
2018-12-20T04:55:38.103Z,1002.54
2018-12-20T04:56:36.911Z,1002.56
2018-12-20T04:57:35.657Z,1002.54
2018-12-20T04:58:34.458Z,1002.58
2018-12-20T04:59:33.078Z,1002.59
2018-12-20T05:00:31.491Z,1002.53
2018-12-20T05:01:30.302Z,1002.58
2018-12-20T05:02:28.855Z,1002.59
2018-12-20T05:03:27.303Z,1002.61
2018-12-20T05:04:25.794Z,1002.63
2018-12-20T05:05:24.542Z,1002.6
2018-12-20T05:06:23.055Z,1002.61
2018-12-20T05:07:21.643Z,1002.62
2018-12-20T05:08:20.292Z,1002.65
2018-12-20T05:09:19.182Z,1002.65
2018-12-20T05:10:17.591Z,1002.64
2018-12-20T05:11:16.085Z,1002.72
2018-12-20T05:12:14.633Z,1002.69
2018-12-20T05:13:13.252Z,1002.71
2018-12-20T05:14:12.030Z,1002.7
2018-12-20T05:15:10.580Z,1002.7
2018-12-20T05:16:08.880Z,1002.71
2018-12-20T05:17:07.507Z,1002.7
2018-12-20T05:18:05.918Z,1002.66
2018-12-20T05:19:04.725Z,1002.68
2018-12-20T05:20:03.280Z,1002.7
2018-12-20T05:21:01.973Z,1002.68
2018-12-20T05:22:00.405Z,1002.7
2018-12-20T05:22:59.160Z,1002.66
2018-12-20T05:23:57.694Z,1002.65
2018-12-20T05:24:56.591Z,1002.67
2018-12-20T05:25:54.901Z,1002.62
2018-12-20T05:26:53.639Z,1002.65
2018-12-20T05:27:52.044Z,1002.68
2018-12-20T05:28:50.903Z,1002.68
2018-12-20T05:29:49.516Z,1002.72
2018-12-20T05:30:47.992Z,1002.68
2018-12-20T05:31:46.509Z,1002.64
2018-12-20T05:32:45.348Z,1002.68
2018-12-20T05:33:43.953Z,1002.73
2018-12-20T05:34:42.809Z,1002.75
2018-12-20T05:35:41.156Z,1002.72
2018-12-20T05:36:39.631Z,1002.7
2018-12-20T05:37:38.237Z,1002.68
2018-12-20T05:38:37.809Z,1002.71
2018-12-20T05:39:36.087Z,1002.69
2018-12-20T05:40:34.653Z,1002.74
2018-12-20T05:41:33.339Z,1002.8
2018-12-20T05:42:31.918Z,1002.76
2018-12-20T05:43:30.267Z,1002.81
2018-12-20T05:44:28.780Z,1002.78
2018-12-20T05:47:09.349Z,1002.79
2018-12-20T05:48:07.879Z,1002.75
2018-12-20T05:49:06.349Z,1002.8
2018-12-20T05:50:05.295Z,1002.83
2018-12-20T05:51:03.763Z,1002.81
2018-12-20T05:52:02.392Z,1002.84
2018-12-20T05:53:01.296Z,1002.82
2018-12-20T05:53:59.832Z,1002.85
2018-12-20T05:54:58.387Z,1002.89
2018-12-20T05:55:57.129Z,1002.87
2018-12-20T05:56:56.393Z,1002.93
2018-12-20T05:57:55.277Z,1002.96
2018-12-20T05:58:53.664Z,1003.03
2018-12-20T05:59:52.365Z,1003.04
2018-12-20T06:00:50.832Z,1003.06
2018-12-20T06:01:49.419Z,1003.08
2018-12-20T06:02:48.143Z,1003.09
2018-12-20T06:03:46.802Z,1003.09
2018-12-20T06:04:45.419Z,1003.16
2018-12-20T06:05:43.796Z,1003.21
2018-12-20T06:06:42.568Z,1003.17
2018-12-20T06:07:41.407Z,1003.15
2018-12-20T06:08:39.832Z,1003.13
2018-12-20T06:09:38.679Z,1003.11
2018-12-20T06:10:37.060Z,1003.17
2018-12-20T06:11:35.595Z,1003.18
2018-12-20T06:12:34.128Z,1003.23
2018-12-20T06:13:33.008Z,1003.24
2018-12-20T06:14:31.621Z,1003.25
2018-12-20T06:17:11.668Z,1003.29
2018-12-20T06:18:10.877Z,1003.27
2018-12-20T06:19:09.490Z,1003.28
2018-12-20T06:20:08.071Z,1003.25
2018-12-20T06:21:07.025Z,1003.23
2018-12-20T06:22:05.612Z,1003.27
2018-12-20T06:23:04.034Z,1003.28
2018-12-20T06:24:02.704Z,1003.28
2018-12-20T06:25:01.367Z,1003.31
2018-12-20T06:28:56.660Z,1003.31
2018-12-20T06:29:55.370Z,1003.32
2018-12-20T06:30:53.911Z,1003.28
2018-12-20T06:31:52.612Z,1003.36
2018-12-20T06:32:51.186Z,1003.35
2018-12-20T06:33:49.731Z,1003.41
2018-12-20T06:34:48.320Z,1003.4
2018-12-20T06:35:46.909Z,1003.41
2018-12-20T06:36:45.572Z,1003.43
2018-12-20T06:37:44.025Z,1003.45
2018-12-20T06:38:42.804Z,1003.44
2018-12-20T06:39:41.593Z,1003.43
2018-12-20T06:40:40.166Z,1003.45
2018-12-20T06:41:38.811Z,1003.48
2018-12-20T06:42:37.346Z,1003.54
2018-12-20T06:43:35.956Z,1003.5
2018-12-20T06:44:34.531Z,1003.51
2018-12-20T06:45:33.118Z,1003.51
2018-12-20T06:46:31.674Z,1003.42
2018-12-20T06:47:30.187Z,1003.43
2018-12-20T06:48:28.933Z,1003.49
2018-12-20T06:49:27.640Z,1003.44
2018-12-20T06:50:26.188Z,1003.43
2018-12-20T06:51:25.046Z,1003.47
2018-12-20T06:52:23.547Z,1003.45
2018-12-20T06:53:22.122Z,1003.44
2018-12-20T06:54:20.683Z,1003.47
2018-12-20T06:55:19.399Z,1003.5
2018-12-20T06:56:17.995Z,1003.48
2018-12-20T06:57:16.692Z,1003.5
2018-12-20T06:58:15.499Z,1003.47
2018-12-20T07:01:54.515Z,1003.48
2018-12-20T07:02:53.399Z,1003.41
2018-12-20T07:03:51.918Z,1003.44
2018-12-20T07:04:50.582Z,1003.48
2018-12-20T07:05:49.112Z,1003.46
2018-12-20T07:06:47.668Z,1003.44
2018-12-20T07:07:46.200Z,1003.46
2018-12-20T07:08:44.742Z,1003.41
2018-12-20T07:09:43.285Z,1003.47
2018-12-20T07:10:41.823Z,1003.46
2018-12-20T07:11:40.363Z,1003.51
2018-12-20T07:12:39.393Z,1003.45
2018-12-20T07:13:37.915Z,1003.39
2018-12-20T07:14:36.590Z,1003.39
2018-12-20T07:15:35.152Z,1003.43
2018-12-20T07:16:33.704Z,1003.41
2018-12-20T07:17:32.344Z,1003.41
2018-12-20T07:18:30.905Z,1003.4
2018-12-20T07:19:29.585Z,1003.44
2018-12-20T07:20:28.177Z,1003.38
2018-12-20T07:21:26.906Z,1003.4
2018-12-20T07:22:25.551Z,1003.39
2018-12-20T07:23:24.128Z,1003.34
2018-12-20T07:24:22.878Z,1003.38
2018-12-20T07:25:21.408Z,1003.41
2018-12-20T07:26:19.921Z,1003.46
2018-12-20T07:27:18.475Z,1003.42
2018-12-20T07:28:17.044Z,1003.42
2018-12-20T07:29:15.545Z,1003.44
2018-12-20T07:30:14.140Z,1003.44
2018-12-20T07:31:12.661Z,1003.46
2018-12-20T07:32:11.328Z,1003.47
2018-12-20T07:33:09.865Z,1003.43
2018-12-20T07:34:08.667Z,1003.45
2018-12-20T07:36:49.177Z,1003.48
2018-12-20T07:37:47.709Z,1003.45
2018-12-20T07:38:46.252Z,1003.49
2018-12-20T07:39:45.087Z,1003.55
2018-12-20T07:40:43.703Z,1003.54
2018-12-20T07:41:42.243Z,1003.57
2018-12-20T07:42:41.097Z,1003.52
2018-12-20T07:43:39.709Z,1003.61
2018-12-20T07:44:38.237Z,1003.55
2018-12-20T07:45:36.801Z,1003.57
2018-12-20T07:46:37.885Z,1003.56
2018-12-20T07:47:34.051Z,1003.58
2018-12-20T07:48:32.732Z,1003.61
2018-12-20T07:49:31.473Z,1003.59
2018-12-20T07:50:31.134Z,1003.64
2018-12-20T07:51:29.751Z,1003.7
2018-12-20T07:52:28.364Z,1003.61
2018-12-20T07:53:26.906Z,1003.66
2018-12-20T07:54:25.481Z,1003.68
2018-12-20T07:55:24.039Z,1003.69
2018-12-20T07:56:22.839Z,1003.72
2018-12-20T07:57:21.521Z,1003.75
2018-12-20T07:58:20.093Z,1003.65
2018-12-20T07:59:23.431Z,1003.74
2018-12-20T08:00:17.528Z,1003.69
2018-12-20T08:01:16.070Z,1003.73
2018-12-20T08:02:14.905Z,1003.67
2018-12-20T08:03:13.589Z,1003.72
2018-12-20T08:04:12.140Z,1003.74
2018-12-20T08:05:10.899Z,1003.73
2018-12-20T08:06:09.462Z,1003.75
2018-12-20T08:07:08.002Z,1003.71
2018-12-20T08:08:06.538Z,1003.74
2018-12-20T08:09:05.072Z,1003.75
2018-12-20T08:10:03.611Z,1003.73
2018-12-20T08:11:02.172Z,1003.69
2018-12-20T08:12:00.701Z,1003.71
2018-12-20T08:12:59.250Z,1003.74
2018-12-20T08:13:57.790Z,1003.74
2018-12-20T08:14:56.363Z,1003.75
2018-12-20T08:15:55.235Z,1003.76
2018-12-20T08:16:53.754Z,1003.82
2018-12-20T08:17:52.308Z,1003.83
2018-12-20T08:18:51.150Z,1003.9
2018-12-20T08:19:49.713Z,1003.85
2018-12-20T08:20:48.329Z,1003.88
2018-12-20T08:21:46.880Z,1003.89
2018-12-20T08:22:45.422Z,1003.93
2018-12-20T08:23:43.956Z,1003.95
2018-12-20T08:24:42.756Z,1003.96
2018-12-20T08:25:41.421Z,1003.96
2018-12-20T08:26:39.942Z,1004.05
2018-12-20T08:27:38.702Z,1004.08
2018-12-20T08:28:37.321Z,1004.03
2018-12-20T08:29:35.898Z,1004.09
2018-12-20T08:30:34.454Z,1004.04
2018-12-20T08:31:33.038Z,1004.11
2018-12-20T08:32:31.566Z,1004.11
2018-12-20T08:33:30.188Z,1004.09
2018-12-20T08:34:28.995Z,1004.09
2018-12-20T08:35:27.605Z,1004.05
2018-12-20T08:36:26.137Z,1004.07
2018-12-20T08:37:24.888Z,1004.04
2018-12-20T08:38:23.421Z,1004
2018-12-20T08:39:21.976Z,1004.05
2018-12-20T08:40:20.529Z,1004.07
2018-12-20T08:43:01.007Z,1004.01
2018-12-20T08:43:59.663Z,1003.98
2018-12-20T08:44:58.194Z,1003.98
2018-12-20T08:45:56.963Z,1003.97
2018-12-20T08:46:55.534Z,1004.01
2018-12-20T08:47:54.068Z,1004.04
2018-12-20T08:48:52.638Z,1003.98
2018-12-20T08:49:51.160Z,1004.02
2018-12-20T08:50:49.714Z,1004.01
2018-12-20T08:51:49.094Z,1004.02
2018-12-20T08:52:47.192Z,1004.02
2018-12-20T08:53:45.717Z,1004.06
2018-12-20T08:54:44.253Z,1004.07
2018-12-20T08:55:43.144Z,1004.02
2018-12-20T08:56:41.661Z,1004.03
2018-12-20T08:57:40.231Z,1004.06
2018-12-20T08:58:38.738Z,1004.1
2018-12-20T08:59:37.319Z,1004.08
2018-12-20T09:00:35.911Z,1004.07
2018-12-20T09:01:34.453Z,1004.09
2018-12-20T09:02:33.295Z,1004.12
2018-12-20T09:03:32.045Z,1004.1
2018-12-20T09:04:30.791Z,1004.07
2018-12-20T09:08:09.488Z,1004.01
2018-12-20T09:09:08.001Z,1003.97
2018-12-20T09:10:06.554Z,1003.99
2018-12-20T09:11:05.330Z,1004.01
2018-12-20T09:12:03.847Z,1003.99
2018-12-20T09:13:09.309Z,1004.04
2018-12-20T09:14:01.268Z,1004.06
2018-12-20T09:14:59.816Z,1004.05
2018-12-20T09:36:46.548Z,1004.04
2018-12-20T09:37:45.314Z,1004.04
2018-12-20T09:38:43.871Z,1004.08
2018-12-20T09:39:42.383Z,1004.02
2018-12-20T09:40:40.940Z,1004.09
2018-12-20T09:41:39.444Z,1004.04
2018-12-20T09:42:37.978Z,1004.04
2018-12-20T09:43:36.638Z,1004.06
2018-12-20T09:44:35.433Z,1004.07
2018-12-20T09:45:33.983Z,1004.02
2018-12-20T09:46:32.556Z,1004.05
2018-12-20T09:47:31.337Z,1004.02
2018-12-20T09:48:29.933Z,1004.03
2018-12-20T09:49:28.500Z,1004
2018-12-20T09:50:27.030Z,1004.02
2018-12-20T09:51:25.660Z,1004.06
2018-12-20T09:52:24.214Z,1004.02
2018-12-20T09:53:23.072Z,1004.05
2018-12-20T09:54:21.746Z,1004.04
2018-12-20T09:55:20.265Z,1004.04
2018-12-20T09:56:19.069Z,1003.96
2018-12-20T09:57:17.617Z,1004
2018-12-20T09:58:16.187Z,1004
2018-12-20T09:59:14.723Z,1004.01
2018-12-20T10:00:13.263Z,1004
2018-12-20T10:01:11.857Z,1004.02
2018-12-20T10:02:10.373Z,1004
2018-12-20T10:03:08.962Z,1004
2018-12-20T10:04:07.675Z,1004.02
2018-12-20T10:05:06.272Z,1004
2018-12-20T10:06:04.961Z,1003.99
2018-12-20T10:07:03.576Z,1004
2018-12-20T10:08:02.115Z,1003.95
2018-12-20T10:09:00.704Z,1003.99
2018-12-20T10:09:59.336Z,1004.01
2018-12-20T10:10:57.900Z,1004
2018-12-20T10:11:56.470Z,1004.03
2018-12-20T10:12:54.993Z,1003.96
2018-12-20T10:13:53.529Z,1004.03
2018-12-20T10:14:52.103Z,1004.01
2018-12-20T10:15:50.983Z,1004.04
2018-12-20T10:16:49.676Z,1004
2018-12-20T10:17:48.197Z,1004.05
2018-12-20T10:18:46.966Z,1004.04
2018-12-20T10:19:45.480Z,1004.06
2018-12-20T10:20:44.023Z,1004.09
2018-12-20T10:21:42.560Z,1004.1
2018-12-20T10:22:41.083Z,1004.08
2018-12-20T10:23:39.653Z,1004.08
2018-12-20T10:24:38.276Z,1004.11
2018-12-20T10:25:37.123Z,1004.12
2018-12-20T10:26:35.801Z,1004.13
2018-12-20T10:27:34.328Z,1004.16
2018-12-20T10:28:33.104Z,1004.12
2018-12-20T10:29:31.640Z,1004.12
2018-12-20T10:30:30.150Z,1004.09
2018-12-20T10:31:28.707Z,1004.09
2018-12-20T10:32:27.254Z,1004.06
2018-12-20T10:33:25.770Z,1004.03
2018-12-20T10:34:24.427Z,1004.04
2018-12-20T10:35:23.250Z,1004.02
2018-12-20T10:36:21.779Z,1004.06
2018-12-20T10:37:20.322Z,1004
2018-12-20T10:38:19.059Z,1003.99
2018-12-20T10:39:17.603Z,1003.99
2018-12-20T10:40:16.161Z,1003.98
2018-12-20T10:41:14.802Z,1003.99
2018-12-20T10:42:13.369Z,1003.95
2018-12-20T10:43:11.900Z,1003.94
2018-12-20T10:44:10.490Z,1003.93
2018-12-20T10:45:09.041Z,1003.91
2018-12-20T10:46:07.588Z,1003.94
2018-12-20T10:47:06.161Z,1003.93
2018-12-20T10:48:05.037Z,1003.85
2018-12-20T10:49:03.754Z,1003.88
2018-12-20T10:50:02.380Z,1003.92
2018-12-20T10:51:00.998Z,1003.84
2018-12-20T10:51:59.543Z,1003.84
2018-12-20T10:52:58.106Z,1003.81
2018-12-20T10:53:56.620Z,1003.85
2018-12-20T10:54:55.151Z,1003.84
2018-12-20T10:55:53.683Z,1003.81
2018-12-20T10:56:52.252Z,1003.84
2018-12-20T10:57:50.816Z,1003.72
2018-12-20T10:58:49.348Z,1003.8
2018-12-20T10:59:47.876Z,1003.74
2018-12-20T11:00:46.682Z,1003.75
2018-12-20T11:01:45.572Z,1003.78
2018-12-20T11:02:44.123Z,1003.8
2018-12-20T11:03:42.727Z,1003.81
2018-12-20T11:04:41.292Z,1003.75
2018-12-20T11:05:39.893Z,1003.74
2018-12-20T11:06:38.478Z,1003.78
2018-12-20T11:07:37.330Z,1003.71
2018-12-20T11:08:35.856Z,1003.75
2018-12-20T11:09:34.389Z,1003.71
2018-12-20T11:10:33.101Z,1003.76
2018-12-20T11:11:31.640Z,1003.8
2018-12-20T11:12:30.191Z,1003.8
2018-12-20T11:13:28.878Z,1003.8
2018-12-20T11:14:27.479Z,1003.78
2018-12-20T11:15:26.019Z,1003.79
2018-12-20T11:16:24.781Z,1003.78
2018-12-20T11:17:23.463Z,1003.78
2018-12-20T11:18:21.999Z,1003.79
2018-12-20T11:19:20.531Z,1003.73
2018-12-20T11:20:19.296Z,1003.74
2018-12-20T11:23:17.509Z,1003.69
2018-12-20T11:24:16.075Z,1003.71
2018-12-20T11:25:14.971Z,1003.7
2018-12-20T11:26:13.489Z,1003.77
2018-12-20T11:27:12.030Z,1003.73
2018-12-20T11:28:10.616Z,1003.71
2018-12-20T11:29:09.133Z,1003.74
2018-12-20T11:30:07.683Z,1003.75
2018-12-20T11:31:06.206Z,1003.74
2018-12-20T11:32:04.859Z,1003.74
2018-12-20T11:33:03.616Z,1003.77
2018-12-20T11:34:02.136Z,1003.76
2018-12-20T11:36:42.524Z,1003.8
2018-12-20T11:37:41.084Z,1003.84
2018-12-20T11:38:39.697Z,1003.81
2018-12-20T11:39:38.241Z,1003.83
2018-12-20T11:40:36.898Z,1003.81
2018-12-20T11:41:35.549Z,1003.84
2018-12-20T11:42:34.077Z,1003.82
2018-12-20T11:43:32.752Z,1003.87
2018-12-20T11:44:31.509Z,1003.82
2018-12-20T11:45:30.042Z,1003.87
2018-12-20T11:46:28.719Z,1003.86
2018-12-20T11:47:27.294Z,1003.87
2018-12-20T11:48:25.796Z,1003.87
2018-12-20T11:49:24.337Z,1003.86
2018-12-20T11:50:22.932Z,1003.86
2018-12-20T11:51:21.441Z,1003.88
2018-12-20T11:54:01.441Z,1003.84
2018-12-20T11:54:59.950Z,1003.88
2018-12-20T11:55:58.509Z,1003.81
2018-12-20T11:56:57.387Z,1003.85
2018-12-20T11:57:55.941Z,1003.86
2018-12-20T11:58:54.536Z,1003.87
2018-12-20T11:59:53.398Z,1003.76
2018-12-20T12:00:51.933Z,1003.85
2018-12-20T12:01:50.509Z,1003.74
2018-12-20T12:02:49.044Z,1003.72
2018-12-20T12:03:47.565Z,1003.73
2018-12-20T12:04:46.097Z,1003.74
2018-12-20T12:05:44.931Z,1003.66
2018-12-20T12:06:43.631Z,1003.67
2018-12-20T12:07:42.201Z,1003.74
2018-12-20T12:08:41.072Z,1003.62
2018-12-20T12:09:39.499Z,1003.67
2018-12-20T12:10:38.010Z,1003.69
2018-12-20T12:11:36.567Z,1003.69
2018-12-20T12:19:56.218Z,1003.56
2018-12-20T12:20:54.980Z,1003.64
2018-12-20T12:21:53.655Z,1003.59
2018-12-20T12:22:52.224Z,1003.62
2018-12-20T12:24:59.942Z,1003.62
2018-12-20T12:25:58.484Z,1003.59
2018-12-20T12:26:57.270Z,1003.57
2018-12-20T12:27:55.773Z,1003.54
2018-12-20T12:28:54.330Z,1003.59
2018-12-20T12:29:52.837Z,1003.59
2018-12-20T12:30:51.448Z,1003.61
2018-12-20T12:31:50.024Z,1003.63
2018-12-20T12:32:48.554Z,1003.67
2018-12-20T12:33:47.258Z,1003.62
2018-12-20T12:34:45.814Z,1003.73
2018-12-20T12:35:44.341Z,1003.71
2018-12-20T12:36:42.986Z,1003.7
2018-12-20T12:37:41.655Z,1003.65
2018-12-20T12:38:40.190Z,1003.66
2018-12-20T12:39:38.952Z,1003.59
2018-12-20T12:40:37.477Z,1003.7
2018-12-20T12:41:35.963Z,1003.69
2018-12-20T12:42:34.581Z,1003.72
2018-12-20T12:43:33.131Z,1003.7
2018-12-20T12:44:31.681Z,1003.69
2018-12-20T12:45:30.228Z,1003.62
2018-12-20T12:46:29.136Z,1003.67
2018-12-20T12:47:27.815Z,1003.64
2018-12-20T12:48:26.564Z,1003.59
2018-12-20T12:49:25.079Z,1003.64
2018-12-20T12:50:23.660Z,1003.63
2018-12-20T12:51:22.217Z,1003.67
2018-12-20T12:52:20.738Z,1003.63
2018-12-20T12:53:19.285Z,1003.66
2018-12-20T12:54:17.834Z,1003.77
2018-12-20T12:55:16.383Z,1003.78
2018-12-20T12:56:14.881Z,1003.72
2018-12-20T12:57:13.433Z,1003.7
2018-12-20T12:58:11.965Z,1003.69
2018-12-20T12:59:10.510Z,1003.72
2018-12-20T13:00:09.402Z,1003.71
2018-12-20T13:01:07.927Z,1003.7
2018-12-20T13:02:06.448Z,1003.7
2018-12-20T13:03:05.308Z,1003.73
2018-12-20T13:04:03.872Z,1003.67
2018-12-20T13:05:02.478Z,1003.73
2018-12-20T13:06:00.916Z,1003.7
2018-12-20T13:06:59.496Z,1003.74
2018-12-20T13:07:58.048Z,1003.79
2018-12-20T13:08:56.563Z,1003.76
2018-12-20T13:09:55.166Z,1003.74
2018-12-20T13:10:53.691Z,1003.78
2018-12-20T13:11:52.244Z,1003.79
2018-12-20T13:12:50.764Z,1003.73
2018-12-20T13:13:49.529Z,1003.74
2018-12-20T13:14:48.062Z,1003.75
2018-12-20T13:15:46.667Z,1003.77
2018-12-20T13:16:45.315Z,1003.74
2018-12-20T13:17:43.915Z,1003.72
2018-12-20T13:18:42.588Z,1003.8
2018-12-20T13:19:41.185Z,1003.75
2018-12-20T13:20:39.755Z,1003.76
2018-12-20T13:21:38.289Z,1003.76
2018-12-20T13:22:36.891Z,1003.71
2018-12-20T13:23:35.586Z,1003.7
2018-12-20T13:24:34.111Z,1003.73
2018-12-20T13:25:32.760Z,1003.79
2018-12-20T13:26:31.619Z,1003.75
2018-12-20T13:27:30.153Z,1003.76
2018-12-20T13:28:28.802Z,1003.77
2018-12-20T13:29:27.330Z,1003.82
2018-12-20T13:30:25.879Z,1003.76
2018-12-20T13:31:24.476Z,1003.76
2018-12-20T13:32:23.298Z,1003.74
2018-12-20T13:33:21.855Z,1003.72
2018-12-20T13:34:20.451Z,1003.73
2018-12-20T13:35:20.091Z,1003.7
2018-12-20T13:36:18.615Z,1003.76
2018-12-20T13:37:17.350Z,1003.75